sensor_id;sensor_type;location;lat;lon;timestamp;P1;durP1;ratioP1;P2;durP2;ratioP2
78298;SDS011;67556;55.656;12.590;2023-07-31T00:02:12;6.95;;;2.28;;
78298;SDS011;67556;55.656;12.590;2023-07-31T00:04:39;3.78;;;1.83;;
78298;SDS011;67556;55.656;12.590;2023-07-31T00:07:05;5.43;;;2.55;;
78298;SDS011;67556;55.656;12.590;2023-07-31T00:09:32;7.55;;;2.15;;
78298;SDS011;67556;55.656;12.590;2023-07-31T00:11:58;6.03;;;2.47;;
78298;SDS011;67556;55.656;12.590;2023-07-31T00:14:27;6.10;;;2.20;;
78298;SDS011;67556;55.656;12.590;2023-07-31T00:16:53;5.07;;;2.30;;
78298;SDS011;67556;55.656;12.590;2023-07-31T00:19:27;6.13;;;2.30;;
78298;SDS011;67556;55.656;12.590;2023-07-31T00:21:56;4.00;;;2.20;;
78298;SDS011;67556;55.656;12.590;2023-07-31T00:24:23;6.13;;;2.45;;
78298;SDS011;67556;55.656;12.590;2023-07-31T00:26:51;4.55;;;2.20;;
78298;SDS011;67556;55.656;12.590;2023-07-31T00:29:25;7.30;;;2.25;;
78298;SDS011;67556;55.656;12.590;2023-07-31T00:31:52;6.18;;;2.08;;
78298;SDS011;67556;55.656;12.590;2023-07-31T00:34:19;4.15;;;2.20;;
78298;SDS011;67556;55.656;12.590;2023-07-31T00:36:46;7.30;;;2.53;;
78298;SDS011;67556;55.656;12.590;2023-07-31T00:39:15;5.25;;;2.35;;
78298;SDS011;67556;55.656;12.590;2023-07-31T00:41:43;8.18;;;2.90;;
78298;SDS011;67556;55.656;12.590;2023-07-31T00:44:09;8.77;;;3.53;;
78298;SDS011;67556;55.656;12.590;2023-07-31T00:46:35;5.60;;;2.30;;
78298;SDS011;67556;55.656;12.590;2023-07-31T00:49:08;6.05;;;2.72;;
78298;SDS011;67556;55.656;12.590;2023-07-31T00:51:35;7.93;;;2.92;;
78298;SDS011;67556;55.656;12.590;2023-07-31T00:54:02;6.63;;;2.90;;
78298;SDS011;67556;55.656;12.590;2023-07-31T00:56:29;7.78;;;2.60;;
78298;SDS011;67556;55.656;12.590;2023-07-31T00:58:56;5.57;;;2.70;;
78298;SDS011;67556;55.656;12.590;2023-07-31T01:01:23;9.30;;;3.00;;
78298;SDS011;67556;55.656;12.590;2023-07-31T01:03:49;8.68;;;3.00;;
78298;SDS011;67556;55.656;12.590;2023-07-31T01:06:25;7.97;;;2.60;;
78298;SDS011;67556;55.656;12.590;2023-07-31T01:09:00;10.25;;;3.38;;
78298;SDS011;67556;55.656;12.590;2023-07-31T01:11:30;7.45;;;2.80;;
78298;SDS011;67556;55.656;12.590;2023-07-31T01:13:59;9.52;;;2.90;;
78298;SDS011;67556;55.656;12.590;2023-07-31T01:16:28;8.65;;;2.92;;
78298;SDS011;67556;55.656;12.590;2023-07-31T01:18:56;6.53;;;2.90;;
78298;SDS011;67556;55.656;12.590;2023-07-31T01:21:37;5.97;;;2.60;;
78298;SDS011;67556;55.656;12.590;2023-07-31T01:24:29;7.25;;;2.85;;
78298;SDS011;67556;55.656;12.590;2023-07-31T01:27:11;8.05;;;2.63;;
78298;SDS011;67556;55.656;12.590;2023-07-31T01:29:42;9.23;;;3.25;;
78298;SDS011;67556;55.656;12.590;2023-07-31T01:32:18;11.63;;;3.38;;
78298;SDS011;67556;55.656;12.590;2023-07-31T01:34:53;6.13;;;2.42;;
78298;SDS011;67556;55.656;12.590;2023-07-31T01:37:20;6.65;;;2.85;;
78298;SDS011;67556;55.656;12.590;2023-07-31T01:39:47;7.53;;;2.80;;
78298;SDS011;67556;55.656;12.590;2023-07-31T01:42:15;8.05;;;2.70;;
78298;SDS011;67556;55.656;12.590;2023-07-31T01:44:41;7.05;;;2.65;;
78298;SDS011;67556;55.656;12.590;2023-07-31T01:47:09;8.23;;;2.92;;
78298;SDS011;67556;55.656;12.590;2023-07-31T01:49:35;10.48;;;3.03;;
78298;SDS011;67556;55.656;12.590;2023-07-31T01:52:02;6.47;;;2.55;;
78298;SDS011;67556;55.656;12.590;2023-07-31T01:54:34;6.82;;;2.53;;
78298;SDS011;67556;55.656;12.590;2023-07-31T01:57:01;10.77;;;3.05;;
78298;SDS011;67556;55.656;12.590;2023-07-31T01:59:29;9.20;;;3.50;;
78298;SDS011;67556;55.656;12.590;2023-07-31T02:01:59;11.15;;;3.55;;
78298;SDS011;67556;55.656;12.590;2023-07-31T02:04:28;9.38;;;3.00;;
78298;SDS011;67556;55.656;12.590;2023-07-31T02:06:54;6.63;;;2.80;;
78298;SDS011;67556;55.656;12.590;2023-07-31T02:09:21;11.18;;;2.80;;
78298;SDS011;67556;55.656;12.590;2023-07-31T02:11:48;12.52;;;3.58;;
78298;SDS011;67556;55.656;12.590;2023-07-31T02:14:14;8.40;;;2.97;;
78298;SDS011;67556;55.656;12.590;2023-07-31T02:16:42;12.07;;;3.40;;
78298;SDS011;67556;55.656;12.590;2023-07-31T02:19:09;9.73;;;3.05;;
78298;SDS011;67556;55.656;12.590;2023-07-31T02:21:35;8.63;;;3.20;;
78298;SDS011;67556;55.656;12.590;2023-07-31T02:24:02;9.30;;;3.10;;
78298;SDS011;67556;55.656;12.590;2023-07-31T02:26:28;11.38;;;3.80;;
78298;SDS011;67556;55.656;12.590;2023-07-31T02:28:55;9.68;;;2.95;;
78298;SDS011;67556;55.656;12.590;2023-07-31T02:31:22;7.70;;;3.20;;
78298;SDS011;67556;55.656;12.590;2023-07-31T02:33:50;7.18;;;2.70;;
78298;SDS011;67556;55.656;12.590;2023-07-31T02:36:18;8.52;;;3.50;;
78298;SDS011;67556;55.656;12.590;2023-07-31T02:38:44;9.30;;;2.95;;
78298;SDS011;67556;55.656;12.590;2023-07-31T02:41:10;6.47;;;2.78;;
78298;SDS011;67556;55.656;12.590;2023-07-31T02:43:38;5.65;;;2.60;;
78298;SDS011;67556;55.656;12.590;2023-07-31T02:46:04;12.10;;;2.83;;
78298;SDS011;67556;55.656;12.590;2023-07-31T02:48:31;7.97;;;3.00;;
78298;SDS011;67556;55.656;12.590;2023-07-31T02:50:59;7.80;;;2.85;;
78298;SDS011;67556;55.656;12.590;2023-07-31T02:53:26;9.45;;;2.85;;
78298;SDS011;67556;55.656;12.590;2023-07-31T02:55:53;13.48;;;3.00;;
78298;SDS011;67556;55.656;12.590;2023-07-31T02:58:20;11.10;;;2.95;;
78298;SDS011;67556;55.656;12.590;2023-07-31T03:03:22;8.80;;;2.75;;
78298;SDS011;67556;55.656;12.590;2023-07-31T03:05:48;8.18;;;2.80;;
78298;SDS011;67556;55.656;12.590;2023-07-31T03:08:16;8.18;;;3.05;;
78298;SDS011;67556;55.656;12.590;2023-07-31T03:10:42;9.85;;;3.00;;
78298;SDS011;67556;55.656;12.590;2023-07-31T03:13:08;8.82;;;3.00;;
78298;SDS011;67556;55.656;12.590;2023-07-31T03:15:35;7.10;;;2.83;;
78298;SDS011;67556;55.656;12.590;2023-07-31T03:18:01;9.27;;;3.10;;
78298;SDS011;67556;55.656;12.590;2023-07-31T03:20:28;8.57;;;2.83;;
78298;SDS011;67556;55.656;12.590;2023-07-31T03:22:54;9.65;;;3.20;;
78298;SDS011;67556;55.656;12.590;2023-07-31T03:25:23;4.60;;;2.55;;
78298;SDS011;67556;55.656;12.590;2023-07-31T03:27:49;8.80;;;2.88;;
78298;SDS011;67556;55.656;12.590;2023-07-31T03:30:16;8.70;;;2.90;;
78298;SDS011;67556;55.656;12.590;2023-07-31T03:32:42;8.90;;;3.60;;
78298;SDS011;67556;55.656;12.590;2023-07-31T03:35:09;9.63;;;2.95;;
78298;SDS011;67556;55.656;12.590;2023-07-31T03:37:35;7.35;;;2.65;;
78298;SDS011;67556;55.656;12.590;2023-07-31T03:40:03;9.07;;;2.85;;
78298;SDS011;67556;55.656;12.590;2023-07-31T03:42:33;8.63;;;3.10;;
78298;SDS011;67556;55.656;12.590;2023-07-31T03:45:00;6.50;;;2.65;;
78298;SDS011;67556;55.656;12.590;2023-07-31T03:47:26;7.75;;;2.90;;
78298;SDS011;67556;55.656;12.590;2023-07-31T03:49:53;7.65;;;2.83;;
78298;SDS011;67556;55.656;12.590;2023-07-31T03:52:19;5.60;;;2.88;;
78298;SDS011;67556;55.656;12.590;2023-07-31T03:54:48;8.32;;;2.65;;
78298;SDS011;67556;55.656;12.590;2023-07-31T03:57:14;8.55;;;2.78;;
78298;SDS011;67556;55.656;12.590;2023-07-31T03:59:42;6.30;;;2.63;;
78298;SDS011;67556;55.656;12.590;2023-07-31T04:02:09;9.18;;;2.60;;
78298;SDS011;67556;55.656;12.590;2023-07-31T04:04:36;7.40;;;2.42;;
78298;SDS011;67556;55.656;12.590;2023-07-31T04:07:02;6.68;;;2.72;;
78298;SDS011;67556;55.656;12.590;2023-07-31T04:09:31;7.65;;;3.42;;
78298;SDS011;67556;55.656;12.590;2023-07-31T04:11:57;7.82;;;2.55;;
78298;SDS011;67556;55.656;12.590;2023-07-31T04:14:26;9.38;;;2.65;;
78298;SDS011;67556;55.656;12.590;2023-07-31T04:16:56;7.68;;;2.35;;
78298;SDS011;67556;55.656;12.590;2023-07-31T04:19:22;8.00;;;2.58;;
78298;SDS011;67556;55.656;12.590;2023-07-31T04:21:50;9.32;;;2.63;;
78298;SDS011;67556;55.656;12.590;2023-07-31T04:24:16;9.10;;;2.65;;
78298;SDS011;67556;55.656;12.590;2023-07-31T04:26:49;7.32;;;2.38;;
78298;SDS011;67556;55.656;12.590;2023-07-31T04:29:15;7.53;;;2.58;;
78298;SDS011;67556;55.656;12.590;2023-07-31T04:31:42;5.28;;;2.60;;
78298;SDS011;67556;55.656;12.590;2023-07-31T04:34:09;5.35;;;2.30;;
78298;SDS011;67556;55.656;12.590;2023-07-31T04:36:36;5.03;;;2.97;;
78298;SDS011;67556;55.656;12.590;2023-07-31T04:39:03;5.93;;;2.42;;
78298;SDS011;67556;55.656;12.590;2023-07-31T04:41:29;10.63;;;2.65;;
78298;SDS011;67556;55.656;12.590;2023-07-31T04:43:56;7.53;;;2.10;;
78298;SDS011;67556;55.656;12.590;2023-07-31T04:46:22;7.07;;;2.50;;
78298;SDS011;67556;55.656;12.590;2023-07-31T04:48:49;5.53;;;2.10;;
78298;SDS011;67556;55.656;12.590;2023-07-31T04:51:16;6.10;;;2.38;;
78298;SDS011;67556;55.656;12.590;2023-07-31T04:53:43;9.07;;;2.42;;
78298;SDS011;67556;55.656;12.590;2023-07-31T04:56:09;5.63;;;2.08;;
78298;SDS011;67556;55.656;12.590;2023-07-31T04:58:36;5.30;;;3.03;;
78298;SDS011;67556;55.656;12.590;2023-07-31T05:01:03;3.85;;;2.28;;
78298;SDS011;67556;55.656;12.590;2023-07-31T05:03:29;6.78;;;2.40;;
78298;SDS011;67556;55.656;12.590;2023-07-31T05:06:01;7.35;;;2.42;;
78298;SDS011;67556;55.656;12.590;2023-07-31T05:08:29;5.60;;;2.45;;
78298;SDS011;67556;55.656;12.590;2023-07-31T05:10:56;4.32;;;2.00;;
78298;SDS011;67556;55.656;12.590;2023-07-31T05:13:23;5.47;;;2.00;;
78298;SDS011;67556;55.656;12.590;2023-07-31T05:15:50;4.57;;;2.28;;
78298;SDS011;67556;55.656;12.590;2023-07-31T05:18:16;6.75;;;2.53;;
78298;SDS011;67556;55.656;12.590;2023-07-31T05:20:43;5.55;;;2.05;;
78298;SDS011;67556;55.656;12.590;2023-07-31T05:23:09;7.28;;;2.15;;
78298;SDS011;67556;55.656;12.590;2023-07-31T05:25:37;5.07;;;2.67;;
78298;SDS011;67556;55.656;12.590;2023-07-31T05:28:04;6.72;;;2.30;;
78298;SDS011;67556;55.656;12.590;2023-07-31T05:30:31;7.70;;;2.50;;
78298;SDS011;67556;55.656;12.590;2023-07-31T05:32:57;5.82;;;2.70;;
78298;SDS011;67556;55.656;12.590;2023-07-31T05:35:23;6.95;;;2.40;;
78298;SDS011;67556;55.656;12.590;2023-07-31T05:37:50;3.67;;;2.10;;
78298;SDS011;67556;55.656;12.590;2023-07-31T05:40:17;4.15;;;2.40;;
78298;SDS011;67556;55.656;12.590;2023-07-31T05:42:44;5.13;;;2.33;;
78298;SDS011;67556;55.656;12.590;2023-07-31T05:45:11;5.70;;;2.00;;
78298;SDS011;67556;55.656;12.590;2023-07-31T05:47:38;3.90;;;1.85;;
78298;SDS011;67556;55.656;12.590;2023-07-31T05:50:05;5.57;;;1.98;;
78298;SDS011;67556;55.656;12.590;2023-07-31T05:52:31;6.15;;;2.40;;
78298;SDS011;67556;55.656;12.590;2023-07-31T05:54:58;6.53;;;2.25;;
78298;SDS011;67556;55.656;12.590;2023-07-31T05:57:24;5.28;;;2.13;;
78298;SDS011;67556;55.656;12.590;2023-07-31T05:59:52;3.88;;;1.98;;
78298;SDS011;67556;55.656;12.590;2023-07-31T06:02:19;4.45;;;2.20;;
78298;SDS011;67556;55.656;12.590;2023-07-31T06:04:45;4.03;;;1.98;;
78298;SDS011;67556;55.656;12.590;2023-07-31T06:07:12;5.72;;;2.05;;
78298;SDS011;67556;55.656;12.590;2023-07-31T06:09:38;7.15;;;2.30;;
78298;SDS011;67556;55.656;12.590;2023-07-31T06:12:05;3.72;;;2.53;;
78298;SDS011;67556;55.656;12.590;2023-07-31T06:14:32;4.30;;;2.35;;
78298;SDS011;67556;55.656;12.590;2023-07-31T06:17:00;4.80;;;2.00;;
78298;SDS011;67556;55.656;12.590;2023-07-31T06:19:27;4.47;;;2.00;;
78298;SDS011;67556;55.656;12.590;2023-07-31T06:21:53;5.88;;;2.20;;
78298;SDS011;67556;55.656;12.590;2023-07-31T06:24:20;6.65;;;2.47;;
78298;SDS011;67556;55.656;12.590;2023-07-31T06:26:47;4.30;;;2.20;;
78298;SDS011;67556;55.656;12.590;2023-07-31T06:29:15;5.93;;;2.10;;
78298;SDS011;67556;55.656;12.590;2023-07-31T06:31:42;4.72;;;2.20;;
78298;SDS011;67556;55.656;12.590;2023-07-31T06:34:10;3.47;;;2.38;;
78298;SDS011;67556;55.656;12.590;2023-07-31T06:36:36;6.13;;;2.17;;
78298;SDS011;67556;55.656;12.590;2023-07-31T06:39:02;6.05;;;2.53;;
78298;SDS011;67556;55.656;12.590;2023-07-31T06:41:30;5.03;;;2.42;;
78298;SDS011;67556;55.656;12.590;2023-07-31T06:43:56;6.72;;;2.28;;
78298;SDS011;67556;55.656;12.590;2023-07-31T06:46:25;4.35;;;2.25;;
78298;SDS011;67556;55.656;12.590;2023-07-31T06:48:51;7.70;;;2.78;;
78298;SDS011;67556;55.656;12.590;2023-07-31T06:51:20;8.27;;;2.50;;
78298;SDS011;67556;55.656;12.590;2023-07-31T06:53:46;5.43;;;2.28;;
78298;SDS011;67556;55.656;12.590;2023-07-31T06:56:13;6.55;;;2.72;;
78298;SDS011;67556;55.656;12.590;2023-07-31T06:58:39;4.43;;;2.35;;
78298;SDS011;67556;55.656;12.590;2023-07-31T07:01:05;5.22;;;2.28;;
78298;SDS011;67556;55.656;12.590;2023-07-31T07:03:32;4.88;;;2.60;;
78298;SDS011;67556;55.656;12.590;2023-07-31T07:05:59;5.28;;;2.72;;
78298;SDS011;67556;55.656;12.590;2023-07-31T07:08:26;5.05;;;2.50;;
78298;SDS011;67556;55.656;12.590;2023-07-31T07:10:53;7.57;;;2.78;;
78298;SDS011;67556;55.656;12.590;2023-07-31T07:13:19;6.40;;;2.83;;
78298;SDS011;67556;55.656;12.590;2023-07-31T07:15:47;5.65;;;2.38;;
78298;SDS011;67556;55.656;12.590;2023-07-31T07:18:14;6.60;;;2.38;;
78298;SDS011;67556;55.656;12.590;2023-07-31T07:20:41;2.97;;;2.15;;
78298;SDS011;67556;55.656;12.590;2023-07-31T07:23:12;5.32;;;2.20;;
78298;SDS011;67556;55.656;12.590;2023-07-31T07:25:40;6.90;;;2.70;;
78298;SDS011;67556;55.656;12.590;2023-07-31T07:28:08;4.85;;;2.30;;
78298;SDS011;67556;55.656;12.590;2023-07-31T07:30:35;8.68;;;2.92;;
78298;SDS011;67556;55.656;12.590;2023-07-31T07:33:02;6.80;;;2.92;;
78298;SDS011;67556;55.656;12.590;2023-07-31T07:35:29;6.07;;;2.60;;
78298;SDS011;67556;55.656;12.590;2023-07-31T07:37:55;4.95;;;2.38;;
78298;SDS011;67556;55.656;12.590;2023-07-31T07:40:22;7.80;;;2.92;;
78298;SDS011;67556;55.656;12.590;2023-07-31T07:42:50;4.88;;;2.35;;
78298;SDS011;67556;55.656;12.590;2023-07-31T07:45:17;6.35;;;2.63;;
78298;SDS011;67556;55.656;12.590;2023-07-31T07:47:44;5.55;;;2.80;;
78298;SDS011;67556;55.656;12.590;2023-07-31T07:50:10;4.70;;;2.53;;
78298;SDS011;67556;55.656;12.590;2023-07-31T07:52:37;5.03;;;3.05;;
78298;SDS011;67556;55.656;12.590;2023-07-31T07:55:03;5.70;;;2.72;;
78298;SDS011;67556;55.656;12.590;2023-07-31T07:57:30;5.18;;;2.60;;
78298;SDS011;67556;55.656;12.590;2023-07-31T07:59:58;7.25;;;2.60;;
78298;SDS011;67556;55.656;12.590;2023-07-31T08:02:24;5.50;;;3.15;;
78298;SDS011;67556;55.656;12.590;2023-07-31T08:04:51;4.10;;;2.40;;
78298;SDS011;67556;55.656;12.590;2023-07-31T08:07:17;4.40;;;2.63;;
78298;SDS011;67556;55.656;12.590;2023-07-31T08:09:44;5.43;;;2.40;;
78298;SDS011;67556;55.656;12.590;2023-07-31T08:12:10;7.00;;;2.75;;
78298;SDS011;67556;55.656;12.590;2023-07-31T08:14:37;5.88;;;2.30;;
78298;SDS011;67556;55.656;12.590;2023-07-31T08:17:04;5.03;;;2.90;;
78298;SDS011;67556;55.656;12.590;2023-07-31T08:19:31;4.65;;;2.47;;
78298;SDS011;67556;55.656;12.590;2023-07-31T08:21:57;5.28;;;2.40;;
78298;SDS011;67556;55.656;12.590;2023-07-31T08:24:24;3.55;;;2.35;;
78298;SDS011;67556;55.656;12.590;2023-07-31T08:26:50;7.45;;;2.30;;
78298;SDS011;67556;55.656;12.590;2023-07-31T08:29:17;5.97;;;2.60;;
78298;SDS011;67556;55.656;12.590;2023-07-31T08:31:43;2.67;;;2.35;;
78298;SDS011;67556;55.656;12.590;2023-07-31T08:34:11;3.13;;;2.08;;
78298;SDS011;67556;55.656;12.590;2023-07-31T08:36:37;5.15;;;1.80;;
78298;SDS011;67556;55.656;12.590;2023-07-31T08:39:04;3.25;;;2.00;;
78298;SDS011;67556;55.656;12.590;2023-07-31T08:41:31;2.63;;;2.00;;
78298;SDS011;67556;55.656;12.590;2023-07-31T08:43:59;2.95;;;1.98;;
78298;SDS011;67556;55.656;12.590;2023-07-31T08:46:27;3.83;;;1.67;;
78298;SDS011;67556;55.656;12.590;2023-07-31T08:48:54;2.88;;;1.63;;
78298;SDS011;67556;55.656;12.590;2023-07-31T08:51:25;1.92;;;1.50;;
78298;SDS011;67556;55.656;12.590;2023-07-31T08:53:52;2.45;;;1.50;;
78298;SDS011;67556;55.656;12.590;2023-07-31T08:56:19;3.10;;;1.60;;
78298;SDS011;67556;55.656;12.590;2023-07-31T08:58:47;4.80;;;2.20;;
78298;SDS011;67556;55.656;12.590;2023-07-31T09:01:15;5.07;;;2.80;;
78298;SDS011;67556;55.656;12.590;2023-07-31T09:03:42;3.83;;;2.70;;
78298;SDS011;67556;55.656;12.590;2023-07-31T09:06:10;7.00;;;3.30;;
78298;SDS011;67556;55.656;12.590;2023-07-31T09:08:40;8.10;;;3.38;;
78298;SDS011;67556;55.656;12.590;2023-07-31T09:11:10;5.25;;;3.38;;
78298;SDS011;67556;55.656;12.590;2023-07-31T09:13:36;5.63;;;2.88;;
78298;SDS011;67556;55.656;12.590;2023-07-31T09:16:07;5.63;;;3.72;;
78298;SDS011;67556;55.656;12.590;2023-07-31T09:18:37;6.43;;;3.10;;
78298;SDS011;67556;55.656;12.590;2023-07-31T09:21:25;4.50;;;2.83;;
78298;SDS011;67556;55.656;12.590;2023-07-31T09:23:54;6.10;;;3.25;;
78298;SDS011;67556;55.656;12.590;2023-07-31T09:26:31;6.05;;;3.10;;
78298;SDS011;67556;55.656;12.590;2023-07-31T09:28:59;5.18;;;3.20;;
78298;SDS011;67556;55.656;12.590;2023-07-31T09:31:31;6.00;;;3.08;;
78298;SDS011;67556;55.656;12.590;2023-07-31T09:34:00;5.35;;;3.05;;
78298;SDS011;67556;55.656;12.590;2023-07-31T09:36:28;4.75;;;2.80;;
78298;SDS011;67556;55.656;12.590;2023-07-31T09:38:56;6.88;;;3.80;;
78298;SDS011;67556;55.656;12.590;2023-07-31T09:41:27;7.03;;;2.75;;
78298;SDS011;67556;55.656;12.590;2023-07-31T09:43:54;4.40;;;2.72;;
78298;SDS011;67556;55.656;12.590;2023-07-31T09:46:21;3.17;;;2.42;;
78298;SDS011;67556;55.656;12.590;2023-07-31T09:48:48;4.18;;;2.47;;
78298;SDS011;67556;55.656;12.590;2023-07-31T09:51:14;5.18;;;3.00;;
78298;SDS011;67556;55.656;12.590;2023-07-31T09:53:41;3.53;;;2.67;;
78298;SDS011;67556;55.656;12.590;2023-07-31T09:56:10;4.85;;;2.80;;
78298;SDS011;67556;55.656;12.590;2023-07-31T09:58:36;6.35;;;2.63;;
78298;SDS011;67556;55.656;12.590;2023-07-31T10:01:03;3.65;;;2.38;;
78298;SDS011;67556;55.656;12.590;2023-07-31T10:03:29;4.78;;;2.80;;
78298;SDS011;67556;55.656;12.590;2023-07-31T10:05:57;5.60;;;3.13;;
78298;SDS011;67556;55.656;12.590;2023-07-31T10:08:27;4.75;;;2.67;;
78298;SDS011;67556;55.656;12.590;2023-07-31T10:10:57;5.18;;;3.55;;
78298;SDS011;67556;55.656;12.590;2023-07-31T10:13:26;5.78;;;3.25;;
78298;SDS011;67556;55.656;12.590;2023-07-31T10:15:54;6.68;;;2.72;;
78298;SDS011;67556;55.656;12.590;2023-07-31T10:18:24;5.22;;;2.80;;
78298;SDS011;67556;55.656;12.590;2023-07-31T10:20:51;5.65;;;3.22;;
78298;SDS011;67556;55.656;12.590;2023-07-31T10:23:18;5.20;;;3.22;;
78298;SDS011;67556;55.656;12.590;2023-07-31T10:25:45;4.38;;;3.10;;
78298;SDS011;67556;55.656;12.590;2023-07-31T10:28:14;5.05;;;3.13;;
78298;SDS011;67556;55.656;12.590;2023-07-31T10:30:42;4.35;;;2.85;;
78298;SDS011;67556;55.656;12.590;2023-07-31T10:33:09;6.03;;;3.63;;
78298;SDS011;67556;55.656;12.590;2023-07-31T10:35:35;4.97;;;2.95;;
78298;SDS011;67556;55.656;12.590;2023-07-31T10:38:11;5.50;;;3.15;;
78298;SDS011;67556;55.656;12.590;2023-07-31T10:40:38;5.70;;;3.00;;
78298;SDS011;67556;55.656;12.590;2023-07-31T10:43:05;4.65;;;2.63;;
78298;SDS011;67556;55.656;12.590;2023-07-31T10:45:34;5.03;;;2.72;;
78298;SDS011;67556;55.656;12.590;2023-07-31T10:48:05;5.43;;;2.85;;
78298;SDS011;67556;55.656;12.590;2023-07-31T10:50:32;5.22;;;2.60;;
78298;SDS011;67556;55.656;12.590;2023-07-31T10:53:03;3.80;;;2.20;;
78298;SDS011;67556;55.656;12.590;2023-07-31T10:55:32;4.47;;;2.75;;
78298;SDS011;67556;55.656;12.590;2023-07-31T10:58:05;3.08;;;2.30;;
78298;SDS011;67556;55.656;12.590;2023-07-31T11:00:33;5.03;;;2.28;;
78298;SDS011;67556;55.656;12.590;2023-07-31T11:03:01;5.95;;;2.50;;
78298;SDS011;67556;55.656;12.590;2023-07-31T11:05:47;3.72;;;2.13;;
78298;SDS011;67556;55.656;12.590;2023-07-31T11:08:17;4.43;;;2.40;;
78298;SDS011;67556;55.656;12.590;2023-07-31T11:11:04;6.38;;;2.92;;
78298;SDS011;67556;55.656;12.590;2023-07-31T11:13:33;4.13;;;2.60;;
78298;SDS011;67556;55.656;12.590;2023-07-31T11:16:05;5.65;;;2.70;;
78298;SDS011;67556;55.656;12.590;2023-07-31T11:18:34;4.20;;;2.50;;
78298;SDS011;67556;55.656;12.590;2023-07-31T11:21:09;5.60;;;2.80;;
78298;SDS011;67556;55.656;12.590;2023-07-31T11:23:40;3.97;;;2.72;;
78298;SDS011;67556;55.656;12.590;2023-07-31T11:26:07;6.90;;;2.70;;
78298;SDS011;67556;55.656;12.590;2023-07-31T11:28:34;3.65;;;2.40;;
78298;SDS011;67556;55.656;12.590;2023-07-31T11:31:08;7.38;;;2.90;;
78298;SDS011;67556;55.656;12.590;2023-07-31T11:33:41;4.35;;;2.50;;
78298;SDS011;67556;55.656;12.590;2023-07-31T11:36:27;4.35;;;2.58;;
78298;SDS011;67556;55.656;12.590;2023-07-31T11:39:04;4.95;;;2.67;;
78298;SDS011;67556;55.656;12.590;2023-07-31T11:41:30;5.25;;;2.50;;
78298;SDS011;67556;55.656;12.590;2023-07-31T11:44:00;5.28;;;2.90;;
78298;SDS011;67556;55.656;12.590;2023-07-31T11:46:37;5.47;;;2.78;;
78298;SDS011;67556;55.656;12.590;2023-07-31T11:49:08;5.32;;;2.97;;
78298;SDS011;67556;55.656;12.590;2023-07-31T11:51:36;8.32;;;3.20;;
78298;SDS011;67556;55.656;12.590;2023-07-31T11:54:02;4.65;;;2.90;;
78298;SDS011;67556;55.656;12.590;2023-07-31T11:56:29;5.95;;;2.95;;
78298;SDS011;67556;55.656;12.590;2023-07-31T11:58:57;4.88;;;2.53;;
78298;SDS011;67556;55.656;12.590;2023-07-31T12:01:27;4.55;;;2.83;;
78298;SDS011;67556;55.656;12.590;2023-07-31T12:03:54;4.35;;;2.78;;
78298;SDS011;67556;55.656;12.590;2023-07-31T12:06:21;4.82;;;2.72;;
78298;SDS011;67556;55.656;12.590;2023-07-31T12:09:01;6.45;;;2.80;;
78298;SDS011;67556;55.656;12.590;2023-07-31T12:11:42;7.13;;;3.53;;
78298;SDS011;67556;55.656;12.590;2023-07-31T12:14:10;6.35;;;3.22;;
78298;SDS011;67556;55.656;12.590;2023-07-31T12:16:52;5.03;;;3.03;;
78298;SDS011;67556;55.656;12.590;2023-07-31T12:19:21;8.07;;;3.25;;
78298;SDS011;67556;55.656;12.590;2023-07-31T12:22:00;6.45;;;3.40;;
78298;SDS011;67556;55.656;12.590;2023-07-31T12:24:40;5.50;;;3.22;;
78298;SDS011;67556;55.656;12.590;2023-07-31T12:27:10;6.45;;;2.83;;
78298;SDS011;67556;55.656;12.590;2023-07-31T12:29:49;5.30;;;3.00;;
78298;SDS011;67556;55.656;12.590;2023-07-31T12:32:19;5.40;;;3.17;;
78298;SDS011;67556;55.656;12.590;2023-07-31T12:35:01;3.88;;;2.67;;
78298;SDS011;67556;55.656;12.590;2023-07-31T12:37:28;5.03;;;2.78;;
78298;SDS011;67556;55.656;12.590;2023-07-31T12:39:59;5.05;;;2.80;;
78298;SDS011;67556;55.656;12.590;2023-07-31T12:42:30;4.82;;;2.83;;
78298;SDS011;67556;55.656;12.590;2023-07-31T12:45:14;3.97;;;2.58;;
78298;SDS011;67556;55.656;12.590;2023-07-31T12:47:59;4.63;;;2.72;;
78298;SDS011;67556;55.656;12.590;2023-07-31T12:50:30;5.55;;;3.22;;
78298;SDS011;67556;55.656;12.590;2023-07-31T12:52:56;4.85;;;3.22;;
78298;SDS011;67556;55.656;12.590;2023-07-31T12:55:24;5.55;;;3.42;;
78298;SDS011;67556;55.656;12.590;2023-07-31T12:58:06;6.65;;;3.55;;
78298;SDS011;67556;55.656;12.590;2023-07-31T13:00:51;6.53;;;3.30;;
78298;SDS011;67556;55.656;12.590;2023-07-31T13:03:17;6.78;;;3.70;;
78298;SDS011;67556;55.656;12.590;2023-07-31T13:06:03;6.03;;;3.63;;
78298;SDS011;67556;55.656;12.590;2023-07-31T13:08:30;6.47;;;3.47;;
78298;SDS011;67556;55.656;12.590;2023-07-31T13:11:17;5.43;;;3.25;;
78298;SDS011;67556;55.656;12.590;2023-07-31T13:13:43;5.72;;;3.08;;
78298;SDS011;67556;55.656;12.590;2023-07-31T13:16:28;11.00;;;3.55;;
78298;SDS011;67556;55.656;12.590;2023-07-31T13:18:55;6.28;;;2.65;;
78298;SDS011;67556;55.656;12.590;2023-07-31T13:21:39;5.70;;;2.75;;
78298;SDS011;67556;55.656;12.590;2023-07-31T13:24:17;7.97;;;3.05;;
78298;SDS011;67556;55.656;12.590;2023-07-31T13:26:50;6.13;;;2.40;;
78298;SDS011;67556;55.656;12.590;2023-07-31T13:29:35;5.53;;;2.50;;
78298;SDS011;67556;55.656;12.590;2023-07-31T13:32:02;5.45;;;2.45;;
78298;SDS011;67556;55.656;12.590;2023-07-31T13:34:31;4.18;;;2.00;;
78298;SDS011;67556;55.656;12.590;2023-07-31T13:37:03;4.60;;;2.08;;
78298;SDS011;67556;55.656;12.590;2023-07-31T13:39:31;4.03;;;2.20;;
78298;SDS011;67556;55.656;12.590;2023-07-31T13:42:04;5.15;;;1.95;;
78298;SDS011;67556;55.656;12.590;2023-07-31T13:44:52;6.28;;;2.03;;
78298;SDS011;67556;55.656;12.590;2023-07-31T13:47:18;4.60;;;2.03;;
78298;SDS011;67556;55.656;12.590;2023-07-31T13:49:50;3.25;;;1.70;;
78298;SDS011;67556;55.656;12.590;2023-07-31T13:52:25;3.35;;;1.95;;
78298;SDS011;67556;55.656;12.590;2023-07-31T13:54:51;2.90;;;1.70;;
78298;SDS011;67556;55.656;12.590;2023-07-31T13:57:20;3.53;;;1.65;;
78298;SDS011;67556;55.656;12.590;2023-07-31T13:59:52;3.47;;;2.30;;
78298;SDS011;67556;55.656;12.590;2023-07-31T14:02:19;3.03;;;1.90;;
78298;SDS011;67556;55.656;12.590;2023-07-31T14:04:46;2.22;;;1.50;;
78298;SDS011;67556;55.656;12.590;2023-07-31T14:07:31;2.40;;;1.90;;
78298;SDS011;67556;55.656;12.590;2023-07-31T14:10:00;3.35;;;1.50;;
78298;SDS011;67556;55.656;12.590;2023-07-31T14:12:45;2.38;;;1.80;;
78298;SDS011;67556;55.656;12.590;2023-07-31T14:15:20;3.25;;;1.98;;
78298;SDS011;67556;55.656;12.590;2023-07-31T14:18:05;2.75;;;1.77;;
78298;SDS011;67556;55.656;12.590;2023-07-31T14:20:33;2.92;;;1.73;;
78298;SDS011;67556;55.656;12.590;2023-07-31T14:23:00;2.40;;;1.70;;
78298;SDS011;67556;55.656;12.590;2023-07-31T14:25:39;3.40;;;1.80;;
78298;SDS011;67556;55.656;12.590;2023-07-31T14:28:13;2.85;;;1.50;;
78298;SDS011;67556;55.656;12.590;2023-07-31T14:30:58;3.13;;;1.80;;
78298;SDS011;67556;55.656;12.590;2023-07-31T14:33:43;3.90;;;2.22;;
78298;SDS011;67556;55.656;12.590;2023-07-31T14:36:11;3.42;;;1.85;;
78298;SDS011;67556;55.656;12.590;2023-07-31T14:38:40;2.42;;;1.90;;
78298;SDS011;67556;55.656;12.590;2023-07-31T14:41:14;4.78;;;2.13;;
78298;SDS011;67556;55.656;12.590;2023-07-31T14:43:43;3.83;;;2.55;;
78298;SDS011;67556;55.656;12.590;2023-07-31T14:46:15;3.58;;;2.17;;
78298;SDS011;67556;55.656;12.590;2023-07-31T14:48:55;3.40;;;2.20;;